Time;durP1;ratioP1;P1;durP2;ratioP2;P2;SDS_P1;SDS_P2;PMS_P1;PMS_P2;Temp;Humidity;BMP_temperature;BMP_pressure;BME280_temperature;BME280_humidity;BME280_pressure;Samples;Min_cycle;Max_cycle;Signal;HPM_P1;HPM_P2
2024/04/08 00:01:49;;;;;;;2.10;1.08;;;19.60;94.80;;;;;;4994339;28;20097;-44
2024/04/08 00:04:14;;;;;;;2.10;0.98;;;19.50;94.70;;;;;;4994399;28;20041;-44
2024/04/08 00:06:40;;;;;;;4.32;1.00;;;19.60;94.80;;;;;;4994321;28;20507;-45
2024/04/08 00:09:06;;;;;;;3.88;1.60;;;19.50;94.70;;;;;;4994318;28;20026;-44
2024/04/08 00:11:31;;;;;;;5.32;1.25;;;19.50;94.70;;;;;;4994343;28;20472;-41
2024/04/08 00:13:57;;;;;;;4.35;1.00;;;19.50;94.80;;;;;;4994255;28;20031;-45
2024/04/08 00:16:23;;;;;;;2.67;1.02;;;19.50;94.70;;;;;;4994223;28;20026;-44
2024/04/08 00:18:49;;;;;;;5.35;1.15;;;19.50;94.80;;;;;;4994177;28;20018;-44
2024/04/08 00:21:16;;;;;;;2.88;1.10;;;19.50;94.80;;;;;;4993789;28;20500;-41
2024/04/08 00:23:42;;;;;;;2.42;0.95;;;19.50;94.70;;;;;;4994136;28;20026;-44
2024/04/08 00:26:08;;;;;;;3.15;1.27;;;19.50;94.70;;;;;;4993985;28;20567;-42
2024/04/08 00:28:34;;;;;;;3.35;0.90;;;19.50;94.70;;;;;;4993942;28;20130;-41
2024/04/08 00:31:04;;;;;;;4.38;0.98;;;19.50;94.70;;;;;;4993719;28;20109;-45
2024/04/08 00:33:33;;;;;;;2.65;1.13;;;19.50;94.80;;;;;;4993908;28;20105;-42
2024/04/08 00:35:59;;;;;;;3.70;1.13;;;19.50;94.80;;;;;;4993773;28;20030;-43
2024/04/08 00:38:26;;;;;;;2.42;1.10;;;19.50;94.80;;;;;;4993829;28;20026;-41
2024/04/08 00:40:51;;;;;;;4.15;1.10;;;19.50;94.80;;;;;;4993678;28;20037;-42
2024/04/08 00:43:17;;;;;;;3.90;1.00;;;19.50;94.80;;;;;;4993710;28;20034;-43
2024/04/08 00:45:46;;;;;;;3.17;1.13;;;19.50;94.80;;;;;;4993626;28;20042;-42
2024/04/08 00:48:13;;;;;;;1.92;1.00;;;19.50;94.80;;;;;;4993487;28;20026;-42
2024/04/08 00:50:42;;;;;;;3.97;1.10;;;19.50;94.80;;;;;;4993926;28;20401;-41
2024/04/08 00:53:07;;;;;;;2.90;1.10;;;19.50;94.80;;;;;;4993190;28;20019;-43
2024/04/08 00:55:34;;;;;;;2.63;0.93;;;19.50;94.80;;;;;;4993039;28;20030;-45
2024/04/08 00:58:01;;;;;;;3.33;1.20;;;19.50;94.80;;;;;;4993361;28;20023;-42
2024/04/08 01:00:27;;;;;;;3.47;1.02;;;19.50;94.80;;;;;;4993360;28;20022;-44
2024/04/08 01:02:56;;;;;;;2.65;1.00;;;19.50;94.80;;;;;;4993209;28;20092;-41
2024/04/08 01:05:21;;;;;;;2.53;0.95;;;19.50;94.80;;;;;;4993385;28;20106;-42
2024/04/08 01:07:47;;;;;;;3.55;1.08;;;19.50;94.80;;;;;;4993123;28;20057;-41
2024/04/08 01:10:13;;;;;;;4.05;1.08;;;19.50;94.80;;;;;;4992978;28;20379;-42
2024/04/08 01:12:42;;;;;;;2.45;1.00;;;19.50;94.80;;;;;;4993193;28;20050;-42
2024/04/08 01:15:08;;;;;;;2.25;0.98;;;19.50;94.80;;;;;;4993103;28;20030;-44
2024/04/08 01:17:33;;;;;;;2.58;1.10;;;19.50;94.80;;;;;;4992896;28;20022;-41
2024/04/08 01:19:59;;;;;;;4.85;1.00;;;19.50;94.80;;;;;;4992696;28;20034;-42
2024/04/08 01:22:30;;;;;;;3.67;1.17;;;19.50;94.80;;;;;;4993276;28;20038;-45
2024/04/08 01:26:28;;;;;;;5.05;1.00;;;19.50;94.80;;;;;;5470177;26;20461;-42
2024/04/08 01:28:54;;;;;;;3.78;1.10;;;19.40;94.80;;;;;;5470358;26;20456;-42
2024/04/08 01:31:21;;;;;;;2.88;0.90;;;19.40;94.80;;;;;;5468317;26;19990;-44
2024/04/08 01:33:47;;;;;;;2.42;1.10;;;19.40;94.80;;;;;;5470713;26;19991;-42
2024/04/08 01:36:14;;;;;;;3.45;0.98;;;19.50;94.80;;;;;;5470448;26;20011;-44
2024/04/08 01:38:40;;;;;;;3.28;1.00;;;19.50;94.80;;;;;;5470901;26;20021;-42
2024/04/08 01:41:07;;;;;;;1.85;0.93;;;19.50;94.80;;;;;;5470052;26;20040;-42
2024/04/08 01:43:32;;;;;;;5.15;0.90;;;19.40;94.80;;;;;;5470210;26;20022;-43
2024/04/08 01:45:59;;;;;;;3.42;1.15;;;19.40;94.80;;;;;;5470087;26;20521;-42
2024/04/08 01:48:24;;;;;;;2.58;1.05;;;19.40;94.80;;;;;;5469952;26;19994;-42
2024/04/08 01:50:50;;;;;;;3.50;1.00;;;19.40;94.80;;;;;;5469746;26;20006;-44
2024/04/08 01:53:16;;;;;;;2.88;0.95;;;19.40;94.80;;;;;;5470138;26;20339;-45
2024/04/08 01:55:42;;;;;;;3.72;1.10;;;19.40;94.80;;;;;;5470065;26;20005;-41
2024/04/08 01:58:07;;;;;;;2.25;1.10;;;19.40;94.80;;;;;;5469817;26;19995;-44
2024/04/08 02:00:33;;;;;;;3.85;1.30;;;19.40;94.80;;;;;;5469841;26;20002;-45
2024/04/08 02:02:58;;;;;;;1.73;0.95;;;19.40;94.80;;;;;;5469895;26;20416;-42
2024/04/08 02:05:24;;;;;;;4.22;0.90;;;19.40;94.80;;;;;;5469610;26;20002;-44
2024/04/08 02:07:50;;;;;;;2.92;1.02;;;19.40;94.80;;;;;;5469758;26;19995;-43
2024/04/08 02:10:18;;;;;;;4.93;1.10;;;19.40;94.80;;;;;;5469365;26;20533;-45
2024/04/08 02:12:44;;;;;;;2.65;1.23;;;19.40;94.80;;;;;;5469758;26;19994;-44
2024/04/08 02:15:09;;;;;;;3.03;0.90;;;19.40;94.80;;;;;;5469744;26;20038;-44
2024/04/08 02:17:35;;;;;;;3.78;1.23;;;19.40;94.80;;;;;;5469553;26;19994;-42
2024/04/08 02:20:00;;;;;;;3.75;1.20;;;19.40;94.80;;;;;;5469494;26;20006;-42
2024/04/08 02:22:26;;;;;;;3.83;0.90;;;19.40;94.90;;;;;;5469658;26;20001;-44
2024/04/08 02:24:52;;;;;;;2.15;1.00;;;19.40;94.80;;;;;;5482363;26;19986;-42
2024/04/08 02:27:17;;;;;;;3.42;1.05;;;19.40;94.90;;;;;;5505997;26;20009;-45
2024/04/08 02:29:43;;;;;;;4.10;1.17;;;19.40;94.90;;;;;;5506023;26;20000;-43
2024/04/08 02:32:09;;;;;;;2.85;1.20;;;19.40;94.90;;;;;;5505857;26;19993;-42
2024/04/08 02:34:34;;;;;;;3.60;1.10;;;19.40;94.90;;;;;;5505978;26;20001;-43
2024/04/08 02:37:00;;;;;;;3.80;0.93;;;19.40;94.90;;;;;;5494398;26;19994;-44
2024/04/08 02:39:25;;;;;;;5.60;1.38;;;19.40;94.80;;;;;;5490127;26;20089;-42
2024/04/08 02:41:51;;;;;;;2.47;1.05;;;19.40;94.80;;;;;;5490159;26;19993;-44
2024/04/08 02:44:17;;;;;;;3.63;1.10;;;19.40;94.80;;;;;;5490089;26;20017;-44
2024/04/08 02:46:42;;;;;;;3.03;0.77;;;19.40;94.90;;;;;;5490207;26;19991;-44
2024/04/08 02:49:08;;;;;;;2.38;0.90;;;19.40;94.90;;;;;;5490054;26;19990;-42
2024/04/08 02:51:34;;;;;;;3.00;1.00;;;19.40;94.90;;;;;;5489985;26;19993;-42
2024/04/08 02:54:00;;;;;;;2.63;1.02;;;19.30;94.90;;;;;;5489882;26;19990;-44
2024/04/08 02:56:26;;;;;;;1.65;0.90;;;19.40;94.90;;;;;;5489833;26;20462;-44
2024/04/08 02:58:51;;;;;;;4.38;1.35;;;19.30;94.90;;;;;;5489841;26;19989;-43
2024/04/08 03:01:17;;;;;;;2.10;1.10;;;19.30;94.90;;;;;;5489775;26;20063;-44
2024/04/08 03:03:42;;;;;;;3.33;0.90;;;19.30;94.90;;;;;;5489943;26;20000;-44
2024/04/08 03:06:13;;;;;;;2.20;0.90;;;19.30;94.90;;;;;;5490016;26;19994;-46
2024/04/08 03:08:40;;;;;;;2.08;0.93;;;19.30;94.90;;;;;;5489770;26;20012;-42
2024/04/08 03:11:06;;;;;;;4.70;1.27;;;19.30;94.90;;;;;;5489499;26;20005;-42
2024/04/08 03:13:32;;;;;;;2.17;0.88;;;19.30;94.90;;;;;;5489717;26;20088;-44
2024/04/08 03:15:57;;;;;;;2.97;1.20;;;19.30;94.90;;;;;;5489681;26;20335;-43
2024/04/08 03:18:24;;;;;;;3.90;1.00;;;19.30;94.90;;;;;;5489613;26;20531;-42
2024/04/08 03:20:54;;;;;;;2.17;0.80;;;19.30;94.90;;;;;;5489478;26;20009;-42
2024/04/08 03:23:20;;;;;;;3.53;1.10;;;19.20;95.20;;;;;;5489566;26;20452;-42
2024/04/08 03:25:46;;;;;;;2.60;1.02;;;19.30;94.90;;;;;;5489546;26;20027;-42
2024/04/08 03:28:12;;;;;;;2.83;1.00;;;19.30;94.90;;;;;;5489529;26;19994;-42
2024/04/08 03:30:37;;;;;;;2.28;1.00;;;19.30;94.90;;;;;;5489512;26;20520;-43
2024/04/08 03:33:03;;;;;;;2.58;1.02;;;19.30;94.90;;;;;;5457342;26;20009;-42
2024/04/08 03:35:29;;;;;;;2.97;1.00;;;19.30;94.90;;;;;;5489423;26;20354;-42
2024/04/08 03:37:54;;;;;;;3.15;0.88;;;19.20;94.90;;;;;;5489185;26;20085;-43
2024/04/08 03:40:23;;;;;;;5.90;1.33;;;19.30;94.90;;;;;;5489315;26;19994;-43
2024/04/08 03:42:49;;;;;;;2.90;0.95;;;19.20;94.90;;;;;;5489351;26;19998;-42
2024/04/08 03:45:15;;;;;;;2.65;1.10;;;19.20;94.90;;;;;;5489219;26;20002;-41
2024/04/08 03:47:40;;;;;;;2.63;0.90;;;19.20;94.90;;;;;;5489331;26;20008;-43
2024/04/08 03:50:07;;;;;;;3.50;1.08;;;19.20;94.90;;;;;;5489140;26;20002;-43
2024/04/08 03:52:33;;;;;;;5.95;1.20;;;19.20;94.90;;;;;;5489100;26;20394;-44
2024/04/08 03:54:59;;;;;;;5.55;0.95;;;19.20;94.90;;;;;;5489061;26;20002;-42
2024/04/08 03:57:25;;;;;;;3.00;1.05;;;19.20;94.90;;;;;;5489082;26;20009;-45
2024/04/08 03:59:50;;;;;;;3.83;1.13;;;19.20;94.90;;;;;;5489068;26;20018;-44
2024/04/08 04:02:16;;;;;;;3.38;0.85;;;19.20;94.90;;;;;;5488977;26;20008;-43
2024/04/08 04:04:41;;;;;;;2.47;1.15;;;19.20;94.90;;;;;;5488905;26;19998;-41
2024/04/08 04:07:07;;;;;;;4.60;1.33;;;19.20;94.90;;;;;;5488778;26;20005;-42
2024/04/08 04:09:33;;;;;;;4.55;1.10;;;19.20;94.90;;;;;;5488816;26;19994;-42
2024/04/08 04:11:58;;;;;;;2.78;0.90;;;19.10;94.90;;;;;;5488687;26;19998;-44
2024/04/08 04:14:24;;;;;;;2.42;1.05;;;19.10;94.90;;;;;;5488876;26;19994;-45
2024/04/08 04:16:51;;;;;;;3.47;1.20;;;19.20;94.90;;;;;;5488782;26;19994;-45
2024/04/08 04:19:17;;;;;;;4.35;1.20;;;19.20;94.90;;;;;;5488711;26;20397;-42
2024/04/08 04:21:43;;;;;;;2.78;1.02;;;19.10;94.90;;;;;;5488701;26;19994;-44
2024/04/08 04:24:08;;;;;;;5.45;1.00;;;19.10;94.90;;;;;;5488507;26;20446;-44
2024/04/08 04:26:34;;;;;;;2.60;1.02;;;19.20;94.90;;;;;;5488712;26;20045;-42
2024/04/08 04:28:59;;;;;;;2.92;1.15;;;19.10;94.90;;;;;;5488622;26;20002;-43
2024/04/08 04:31:25;;;;;;;2.72;1.08;;;19.10;94.90;;;;;;5488434;26;20009;-42
2024/04/08 04:33:51;;;;;;;3.58;1.05;;;19.10;94.90;;;;;;5488638;26;20346;-43
2024/04/08 04:36:17;;;;;;;5.13;1.20;;;19.10;94.90;;;;;;5488625;26;20003;-42
2024/04/08 04:38:42;;;;;;;2.30;0.98;;;19.10;94.90;;;;;;5488777;26;20369;-42
2024/04/08 04:41:09;;;;;;;4.72;1.10;;;19.10;95.30;;;;;;5489054;26;20005;-42
2024/04/08 04:43:35;;;;;;;3.40;1.30;;;19.10;95.00;;;;;;5488557;26;19998;-44
2024/04/08 04:46:01;;;;;;;15.52;2.60;;;19.10;95.00;;;;;;5488287;26;20069;-41
2024/04/08 04:48:27;;;;;;;12.90;2.50;;;19.00;93.30;;;;;;5488293;26;20466;-45
2024/04/08 04:50:53;;;;;;;11.80;2.75;;;18.80;93.00;;;;;;5488128;26;19994;-40
2024/04/08 04:53:18;;;;;;;16.83;2.40;;;18.70;93.40;;;;;;5488326;26;19998;-41
2024/04/08 04:55:53;;;;;;;13.95;2.35;;;18.70;93.70;;;;;;5488374;26;20004;-44
2024/04/08 04:58:20;;;;;;;8.95;1.90;;;18.60;93.70;;;;;;5488128;26;19994;-41
2024/04/08 05:00:46;;;;;;;14.48;2.25;;;18.70;93.90;;;;;;5487709;26;20357;-47
2024/04/08 05:03:12;;;;;;;9.45;2.10;;;18.70;93.90;;;;;;5488333;26;19994;-44
2024/04/08 05:05:39;;;;;;;13.93;2.35;;;18.70;94.10;;;;;;5487839;26;20030;-45
2024/04/08 05:08:05;;;;;;;8.98;2.13;;;18.70;94.10;;;;;;5487880;26;20010;-44
2024/04/08 05:10:31;;;;;;;13.90;2.35;;;18.70;94.20;;;;;;5487576;26;19998;-43
2024/04/08 05:12:57;;;;;;;8.25;2.22;;;18.70;94.30;;;;;;5487829;26;20040;-40
2024/04/08 05:15:22;;;;;;;9.57;1.85;;;18.70;94.40;;;;;;5487791;26;20459;-40
2024/04/08 05:17:48;;;;;;;11.27;2.70;;;18.70;94.40;;;;;;5487606;26;20070;-44
2024/04/08 05:20:15;;;;;;;11.50;1.92;;;18.70;94.40;;;;;;5487601;26;20006;-46
2024/04/08 05:22:46;;;;;;;7.25;2.25;;;18.70;94.50;;;;;;5487669;26;20010;-45
2024/04/08 05:25:12;;;;;;;7.55;1.92;;;18.70;94.50;;;;;;5487610;26;20058;-45
2024/04/08 05:27:38;;;;;;;6.30;1.90;;;18.70;94.60;;;;;;5487579;26;19998;-40
2024/04/08 05:30:05;;;;;;;12.63;2.10;;;18.70;94.60;;;;;;5487748;26;20070;-40
2024/04/08 05:32:31;;;;;;;8.73;1.83;;;18.70;94.60;;;;;;5487599;26;20051;-41
2024/04/08 05:34:57;;;;;;;7.40;1.77;;;18.70;94.60;;;;;;5487503;26;19994;-42
2024/04/08 05:37:22;;;;;;;12.27;2.25;;;18.70;94.60;;;;;;5487434;26;20008;-44
2024/04/08 05:39:48;;;;;;;6.50;2.03;;;18.70;94.70;;;;;;5487395;26;20070;-41
2024/04/08 05:42:13;;;;;;;6.93;2.00;;;18.70;94.70;;;;;;5487804;26;20005;-44
2024/04/08 05:44:39;;;;;;;8.90;1.80;;;18.70;94.70;;;;;;5487262;26;19994;-46
2024/04/08 05:47:05;;;;;;;7.60;1.88;;;18.70;94.80;;;;;;5487319;26;19994;-44
2024/04/08 05:49:30;;;;;;;6.28;1.83;;;18.60;94.80;;;;;;5487194;26;20243;-41
2024/04/08 05:51:56;;;;;;;8.00;2.08;;;18.70;94.80;;;;;;5487041;26;19998;-43
2024/04/08 05:54:23;;;;;;;7.03;2.10;;;18.60;94.80;;;;;;5487167;26;20439;-40
2024/04/08 05:56:49;;;;;;;5.43;1.60;;;18.60;94.80;;;;;;5487099;26;20443;-44
2024/04/08 05:59:15;;;;;;;8.10;1.85;;;18.60;94.80;;;;;;5486995;26;20020;-46
2024/04/08 06:01:40;;;;;;;5.72;1.70;;;18.60;94.90;;;;;;5486891;26;19994;-46
2024/04/08 06:04:08;;;;;;;9.98;1.88;;;18.60;94.90;;;;;;5487182;26;19994;-41
2024/04/08 06:06:33;;;;;;;5.25;1.65;;;18.60;95.00;;;;;;5487152;26;20002;-44
2024/04/08 06:09:05;;;;;;;8.95;1.80;;;18.60;95.00;;;;;;5486689;26;20009;-44
2024/04/08 06:11:31;;;;;;;6.15;1.63;;;18.60;95.00;;;;;;5487609;26;19994;-41
2024/04/08 06:13:57;;;;;;;3.83;1.83;;;18.60;95.00;;;;;;5491182;26;19998;-45
2024/04/08 06:16:22;;;;;;;6.03;2.08;;;18.60;95.00;;;;;;5490751;26;20077;-44
2024/04/08 06:18:48;;;;;;;7.28;1.92;;;18.60;95.00;;;;;;5490508;26;20005;-45
2024/04/08 06:21:13;;;;;;;5.75;1.70;;;18.60;95.00;;;;;;5490219;26;20013;-45
2024/04/08 06:23:39;;;;;;;17.05;2.72;;;18.60;95.10;;;;;;5490646;26;20443;-44
2024/04/08 06:26:05;;;;;;;15.85;2.97;;;18.50;93.60;;;;;;5490447;26;19990;-41
2024/04/08 06:28:30;;;;;;;14.70;2.70;;;18.30;93.80;;;;;;5490256;26;20097;-41
2024/04/08 06:30:56;;;;;;;13.50;2.65;;;18.20;94.10;;;;;;5490242;26;20364;-41
2024/04/08 06:33:22;;;;;;;12.80;2.40;;;18.20;94.20;;;;;;5490518;26;19998;-41
2024/04/08 06:35:48;;;;;;;19.65;2.53;;;18.10;94.30;;;;;;5490196;26;20350;-43
2024/04/08 06:38:14;;;;;;;11.27;2.40;;;18.20;94.50;;;;;;5489842;26;19999;-44
2024/04/08 06:40:44;;;;;;;12.50;2.53;;;18.20;94.80;;;;;;5490048;26;20031;-43
2024/04/08 06:43:10;;;;;;;8.80;2.40;;;18.30;94.50;;;;;;5490170;26;20008;-42
2024/04/08 06:45:36;;;;;;;9.95;2.40;;;18.30;94.50;;;;;;5490138;26;19994;-42
2024/04/08 06:48:03;;;;;;;9.70;2.88;;;18.40;94.50;;;;;;5490095;26;19998;-44
2024/04/08 06:50:29;;;;;;;9.60;2.20;;;18.40;94.50;;;;;;5489924;26;20026;-41
2024/04/08 06:52:54;;;;;;;8.45;2.35;;;18.40;94.50;;;;;;5490258;26;20009;-46
2024/04/08 06:55:20;;;;;;;8.43;2.60;;;18.50;94.50;;;;;;5490018;26;20009;-44
2024/04/08 06:57:46;;;;;;;14.32;2.58;;;18.50;94.50;;;;;;5489909;26;20072;-45
2024/04/08 07:00:12;;;;;;;9.27;1.98;;;18.50;94.50;;;;;;5489865;26;20452;-46
2024/04/08 07:02:38;;;;;;;9.23;2.53;;;18.60;94.50;;;;;;5489926;26;20006;-44
2024/04/08 07:05:07;;;;;;;8.50;2.20;;;18.60;94.60;;;;;;5489684;26;19990;-45
2024/04/08 07:07:33;;;;;;;12.15;2.40;;;18.60;94.50;;;;;;5489581;26;20017;-43
2024/04/08 07:09:59;;;;;;;6.32;2.30;;;18.70;94.60;;;;;;5489666;26;19998;-42
2024/04/08 07:12:25;;;;;;;8.55;2.00;;;18.70;94.60;;;;;;5489972;26;20435;-43
2024/04/08 07:14:53;;;;;;;9.05;1.92;;;18.70;94.60;;;;;;5489795;26;19990;-44
2024/04/08 07:17:22;;;;;;;9.80;2.17;;;18.70;94.60;;;;;;5489901;26;19998;-42
2024/04/08 07:19:48;;;;;;;8.93;2.03;;;18.70;94.60;;;;;;5489444;26;20340;-40
2024/04/08 07:22:13;;;;;;;6.90;1.98;;;18.80;94.50;;;;;;5489046;26;20351;-44
2024/04/08 07:24:40;;;;;;;6.00;2.22;;;18.80;94.50;;;;;;5489259;26;19998;-40
2024/04/08 07:27:06;;;;;;;8.13;2.08;;;18.80;94.50;;;;;;5489515;26;19998;-44
2024/04/08 07:29:33;;;;;;;4.60;2.00;;;18.90;94.50;;;;;;5457215;26;20424;-42
2024/04/08 07:32:00;;;;;;;5.15;1.63;;;18.90;94.50;;;;;;5489307;26;19998;-41
2024/04/08 07:34:26;;;;;;;9.55;1.90;;;18.90;94.40;;;;;;5489303;26;20002;-46
2024/04/08 07:36:51;;;;;;;4.20;1.65;;;19.00;94.40;;;;;;5489436;26;20339;-40
2024/04/08 07:39:17;;;;;;;7.10;1.42;;;19.00;94.40;;;;;;5489846;26;20040;-41
2024/04/08 07:41:43;;;;;;;5.03;1.80;;;19.00;94.30;;;;;;5489232;26;20002;-43
2024/04/08 07:44:09;;;;;;;4.00;1.80;;;19.10;94.30;;;;;;5489474;26;19994;-42
2024/04/08 07:46:35;;;;;;;8.23;1.73;;;19.10;94.30;;;;;;5489666;26;20326;-43
2024/04/08 07:49:01;;;;;;;6.38;1.67;;;19.20;94.20;;;;;;5488986;26;20006;-41
2024/04/08 07:51:27;;;;;;;7.85;2.00;;;19.20;94.20;;;;;;5488976;26;20002;-42
2024/04/08 07:53:53;;;;;;;10.88;2.00;;;19.30;94.20;;;;;;5489347;26;20022;-43
2024/04/08 07:56:19;;;;;;;7.80;2.08;;;19.30;94.10;;;;;;5489037;26;20070;-41
2024/04/08 07:58:46;;;;;;;4.85;1.70;;;19.30;94.00;;;;;;5489259;26;20005;-43
2024/04/08 08:01:11;;;;;;;5.00;1.48;;;19.40;94.00;;;;;;5489081;26;20009;-41
2024/04/08 08:03:38;;;;;;;4.57;1.50;;;19.50;94.00;;;;;;5488861;26;20258;-45
2024/04/08 08:06:04;;;;;;;4.32;1.45;;;19.50;93.90;;;;;;5489125;26;19994;-40
2024/04/08 08:08:29;;;;;;;7.07;1.40;;;19.60;93.90;;;;;;5488980;26;20501;-45
2024/04/08 08:11:04;;;;;;;6.68;1.45;;;19.60;93.90;;;;;;5488732;26;19998;-41
2024/04/08 08:13:33;;;;;;;;;;;19.60;93.80;;;;;;5489690;26;20009;-44
2024/04/08 08:15:59;;;;;;;4.85;1.65;;;19.70;93.80;;;;;;5488726;26;19923;-42
2024/04/08 08:18:26;;;;;;;4.18;1.50;;;19.80;93.80;;;;;;5488672;26;19994;-41
2024/04/08 08:20:52;;;;;;;3.45;1.40;;;19.70;93.70;;;;;;5488661;26;20346;-42
2024/04/08 08:23:18;;;;;;;16.20;2.30;;;19.80;93.70;;;;;;5477363;26;20002;-43
2024/04/08 08:25:45;;;;;;;17.27;2.17;;;19.80;87.80;;;;;;5488543;26;20006;-41
2024/04/08 08:28:10;;;;;;;13.82;1.60;;;19.90;90.50;;;;;;5488577;26;20002;-42
2024/04/08 08:30:37;;;;;;;10.60;1.95;;;20.00;91.20;;;;;;5488473;26;20009;-44
2024/04/08 08:33:03;;;;;;;8.48;2.10;;;20.00;91.30;;;;;;5488377;26;20066;-42
2024/04/08 08:35:30;;;;;;;9.68;1.98;;;20.00;91.40;;;;;;5487371;26;20006;-43
2024/04/08 08:37:56;;;;;;;7.47;1.67;;;20.10;91.50;;;;;;5488466;26;19994;-44
2024/04/08 08:40:24;;;;;;;14.23;1.85;;;20.10;91.60;;;;;;5488400;26;19998;-42
2024/04/08 08:42:51;;;;;;;4.90;1.63;;;20.20;91.70;;;;;;5488570;26;20004;-43
2024/04/08 08:45:17;;;;;;;9.80;2.10;;;20.20;91.80;;;;;;5488405;26;20002;-43
2024/04/08 08:47:43;;;;;;;5.65;1.65;;;20.20;91.80;;;;;;5488166;26;20006;-43
2024/04/08 08:50:10;;;;;;;7.05;1.58;;;20.20;91.90;;;;;;5488471;26;20090;-45
2024/04/08 08:52:36;;;;;;;4.90;1.52;;;20.20;91.90;;;;;;5488352;26;20070;-43
2024/04/08 08:55:04;;;;;;;6.57;2.00;;;20.30;92.00;;;;;;5488320;26;20447;-43
2024/04/08 08:57:30;;;;;;;6.95;2.17;;;20.20;91.90;;;;;;5488642;26;20066;-44
2024/04/08 08:59:58;;;;;;;5.00;1.70;;;20.20;92.30;;;;;;5455799;26;20005;-43
2024/04/08 09:02:25;;;;;;;5.47;1.83;;;20.30;92.00;;;;;;5488023;26;20012;-43
2024/04/08 09:04:51;;;;;;;8.68;1.67;;;20.30;92.00;;;;;;5488072;26;20462;-44
2024/04/08 09:07:17;;;;;;;8.75;2.00;;;20.40;92.40;;;;;;5488111;26;20034;-45
2024/04/08 09:09:53;;;;;;;9.98;1.95;;;20.40;92.00;;;;;;5487684;26;20316;-41
2024/04/08 09:12:20;;;;;;;19.90;2.97;;;20.50;91.90;;;;;;5487996;26;20027;-44
2024/04/08 09:14:51;;;;;;;16.75;2.95;;;20.60;86.40;;;;;;5487781;26;20543;-44
2024/04/08 09:17:17;;;;;;;17.60;2.95;;;20.70;86.20;;;;;;5488276;26;19994;-41
2024/04/08 09:19:43;;;;;;;19.60;2.47;;;20.70;87.20;;;;;;5455879;26;20459;-44
2024/04/08 09:22:09;;;;;;;15.07;3.03;;;20.70;87.70;;;;;;5487757;26;19998;-40
2024/04/08 09:24:35;;;;;;;18.58;2.85;;;20.80;88.30;;;;;;5487687;26;19994;-44
2024/04/08 09:27:01;;;;;;;14.50;2.58;;;20.80;88.70;;;;;;5487679;26;20004;-47
2024/04/08 09:29:27;;;;;;;17.75;2.72;;;20.90;89.10;;;;;;5487653;26;20348;-43
2024/04/08 09:31:53;;;;;;;13.68;2.47;;;20.90;89.30;;;;;;5487455;26;20006;-40
2024/04/08 09:34:19;;;;;;;14.07;2.60;;;20.90;89.60;;;;;;5487662;26;20031;-45
2024/04/08 09:36:45;;;;;;;12.50;2.33;;;21.00;89.80;;;;;;5487644;26;19999;-41
2024/04/08 09:39:12;;;;;;;11.75;2.22;;;21.00;89.90;;;;;;5487492;26;20022;-43
2024/04/08 09:41:39;;;;;;;12.88;2.38;;;21.00;90.00;;;;;;5487152;26;20006;-43
2024/04/08 09:44:08;;;;;;;12.02;2.25;;;21.10;90.10;;;;;;5487495;26;20447;-40
2024/04/08 09:46:35;;;;;;;12.90;2.42;;;21.10;90.10;;;;;;5489590;26;20404;-42
2024/04/08 09:49:04;;;;;;;9.23;1.95;;;21.00;90.10;;;;;;5490850;26;19998;-43
2024/04/08 09:51:30;;;;;;;8.63;2.20;;;21.10;90.20;;;;;;5490781;26;20009;-45
2024/04/08 09:53:56;;;;;;;17.10;2.58;;;21.20;90.30;;;;;;5490989;26;20480;-41
2024/04/08 09:56:27;;;;;;;10.85;2.20;;;21.10;90.20;;;;;;5490970;26;20001;-43
2024/04/08 09:59:15;;;;;;;9.20;2.33;;;21.20;90.30;;;;;;5490797;26;20019;-44
2024/04/08 10:01:43;;;;;;;6.07;1.83;;;21.20;90.30;;;;;;5490572;26;20014;-42
2024/04/08 10:04:24;;;;;;;7.60;2.00;;;21.30;90.30;;;;;;5490777;26;19990;-41
2024/04/08 10:06:51;;;;;;;10.13;2.05;;;21.30;90.30;;;;;;5490585;26;20069;-44
2024/04/08 10:09:20;;;;;;;9.45;1.73;;;21.30;90.30;;;;;;5490771;26;20002;-44
2024/04/08 10:11:49;;;;;;;8.00;1.60;;;21.30;90.30;;;;;;5490736;26;19994;-47
2024/04/08 10:14:17;;;;;;;5.72;1.70;;;21.40;90.30;;;;;;5490619;26;20005;-44
2024/04/08 10:16:43;;;;;;;6.45;1.70;;;21.40;90.30;;;;;;5490324;26;20005;-44
2024/04/08 10:19:11;;;;;;;6.88;1.65;;;21.40;90.30;;;;;;5490461;26;19994;-44
2024/04/08 10:21:38;;;;;;;5.60;1.73;;;21.40;90.30;;;;;;5490470;26;20451;-45
2024/04/08 10:24:04;;;;;;;8.15;1.30;;;21.50;90.20;;;;;;5490352;26;20005;-41
2024/04/08 10:26:34;;;;;;;5.80;1.60;;;21.50;90.20;;;;;;5490408;26;20013;-41
2024/04/08 10:29:01;;;;;;;9.27;1.73;;;21.50;90.20;;;;;;5490089;26;20383;-42
2024/04/08 10:31:29;;;;;;;8.93;1.52;;;21.50;90.20;;;;;;5490170;26;20041;-43
2024/04/08 10:33:56;;;;;;;6.63;1.60;;;21.50;90.10;;;;;;5490347;26;19994;-45
2024/04/08 10:36:21;;;;;;;3.83;1.60;;;21.60;90.10;;;;;;5490299;26;20409;-42
2024/04/08 10:38:47;;;;;;;4.00;1.42;;;21.60;90.10;;;;;;5490249;26;19994;-41
2024/04/08 10:41:13;;;;;;;7.75;1.40;;;21.60;90.10;;;;;;5490173;26;20600;-45
2024/04/08 10:43:39;;;;;;;4.72;1.60;;;21.60;90.10;;;;;;5490365;26;20006;-44
2024/04/08 10:46:07;;;;;;;5.95;1.40;;;21.60;90.50;;;;;;5489952;26;20026;-44
2024/04/08 10:48:35;;;;;;;3.97;1.45;;;21.70;90.10;;;;;;5490152;26;20006;-44
2024/04/08 10:51:01;;;;;;;4.10;1.30;;;21.70;90.10;;;;;;5490317;26;20005;-41
2024/04/08 10:53:27;;;;;;;3.47;1.15;;;21.70;90.20;;;;;;5490192;26;20053;-42
2024/04/08 10:55:53;;;;;;;4.88;1.33;;;21.70;90.20;;;;;;5489992;26;19991;-42
2024/04/08 10:58:19;;;;;;;5.53;1.67;;;21.70;90.10;;;;;;5489057;26;19994;-41
2024/04/08 11:00:45;;;;;;;4.93;1.40;;;21.80;90.20;;;;;;5489737;26;20089;-45
2024/04/08 11:03:12;;;;;;;5.38;1.60;;;21.80;90.10;;;;;;5490007;26;20005;-44
2024/04/08 11:05:38;;;;;;;8.52;1.50;;;21.80;90.20;;;;;;5489808;26;20357;-43
2024/04/08 11:08:04;;;;;;;4.45;1.48;;;21.80;90.10;;;;;;5489829;26;20005;-40
2024/04/08 11:10:30;;;;;;;8.52;1.40;;;21.90;90.10;;;;;;5489855;26;20458;-41
2024/04/08 11:12:57;;;;;;;4.18;1.20;;;21.90;90.00;;;;;;5489676;26;20033;-45
2024/04/08 11:15:23;;;;;;;4.05;1.50;;;21.90;90.00;;;;;;5489678;26;20010;-42
2024/04/08 11:17:57;;;;;;;5.57;1.50;;;21.90;90.00;;;;;;5489629;26;19998;-40
2024/04/08 11:20:26;;;;;;;4.28;1.33;;;21.90;90.00;;;;;;5489558;26;19998;-44
2024/04/08 11:22:52;;;;;;;9.15;1.60;;;21.90;90.00;;;;;;5489764;26;20119;-41
2024/04/08 11:25:18;;;;;;;4.97;1.60;;;21.90;90.00;;;;;;5489589;26;19998;-41
2024/04/08 11:27:45;;;;;;;4.03;1.10;;;22.00;90.00;;;;;;5489370;26;20345;-41
2024/04/08 11:30:14;;;;;;;3.88;1.20;;;21.90;90.00;;;;;;5489232;26;20070;-44
2024/04/08 11:32:40;;;;;;;4.72;1.50;;;22.00;90.00;;;;;;5489667;26;20005;-42
2024/04/08 11:35:06;;;;;;;5.60;1.20;;;21.90;90.00;;;;;;5489443;26;20006;-41
2024/04/08 11:37:32;;;;;;;4.13;1.40;;;21.90;90.00;;;;;;5489250;26;20070;-41
2024/04/08 11:39:57;;;;;;;6.60;1.30;;;21.90;90.00;;;;;;5489083;26;20408;-41
2024/04/08 11:42:23;;;;;;;7.53;1.40;;;22.00;90.00;;;;;;5483907;26;20014;-44
2024/04/08 11:45:01;;;;;;;19.15;2.10;;;22.00;90.00;;;;;;5471914;26;19998;-45
2024/04/08 11:47:26;;;;;;;13.93;2.47;;;22.00;82.70;;;;;;5479919;26;20026;-44
2024/04/08 11:49:52;;;;;;;11.27;1.90;;;22.10;81.60;;;;;;5485857;26;20017;-41
2024/04/08 11:52:18;;;;;;;15.07;2.03;;;22.20;83.20;;;;;;5481640;26;20018;-43
2024/04/08 11:54:43;;;;;;;15.73;2.25;;;22.30;84.20;;;;;;5481675;26;20014;-42
2024/04/08 11:57:11;;;;;;;13.30;2.17;;;22.30;85.00;;;;;;5488995;26;19998;-44
2024/04/08 11:59:37;;;;;;;14.32;2.30;;;22.20;85.10;;;;;;5488935;26;20009;-42
2024/04/08 12:02:03;;;;;;;12.18;1.98;;;22.20;85.00;;;;;;5489046;26;20070;-45
2024/04/08 12:04:29;;;;;;;7.78;1.88;;;22.20;85.40;;;;;;5489146;26;19998;-42
2024/04/08 12:06:56;;;;;;;10.68;2.28;;;22.20;85.70;;;;;;5488912;26;20501;-44
2024/04/08 12:09:22;;;;;;;9.98;1.75;;;22.20;86.00;;;;;;5487160;26;20421;-41
2024/04/08 12:11:48;;;;;;;10.77;2.20;;;22.20;86.30;;;;;;5488830;26;20075;-41
2024/04/08 12:14:13;;;;;;;11.57;2.08;;;22.10;86.60;;;;;;5488934;26;20002;-42
2024/04/08 12:16:39;;;;;;;10.50;1.85;;;22.00;86.80;;;;;;5488788;26;20491;-41
2024/04/08 12:19:05;;;;;;;6.40;1.67;;;22.00;87.10;;;;;;5489290;26;20074;-44
2024/04/08 12:21:31;;;;;;;8.68;2.25;;;22.00;87.30;;;;;;5488877;26;20005;-41
2024/04/08 12:23:57;;;;;;;6.60;1.70;;;22.00;87.50;;;;;;5488789;26;20071;-44
2024/04/08 12:26:23;;;;;;;8.82;1.63;;;21.90;87.90;;;;;;5488860;26;20009;-42
2024/04/08 12:28:49;;;;;;;6.90;1.77;;;21.90;87.80;;;;;;5488513;26;19994;-41
2024/04/08 12:31:15;;;;;;;6.03;1.90;;;21.90;88.00;;;;;;5488479;26;20066;-43
2024/04/08 12:33:40;;;;;;;5.90;1.92;;;21.90;88.20;;;;;;5488633;26;20006;-43
2024/04/08 12:36:10;;;;;;;10.10;1.70;;;21.90;88.30;;;;;;5488662;26;19991;-44
2024/04/08 12:38:36;;;;;;;7.28;1.73;;;21.80;88.50;;;;;;5488511;26;20006;-43
2024/04/08 12:41:02;;;;;;;12.23;1.70;;;21.90;88.70;;;;;;5488340;26;20331;-41
2024/04/08 12:43:28;;;;;;;8.52;1.80;;;21.90;88.70;;;;;;5488399;26;19998;-43